Time;durP1;ratioP1;P1;durP2;ratioP2;P2;SDS_P1;SDS_P2;PMS_P1;PMS_P2;Temp;Humidity;BMP_temperature;BMP_pressure;BME280_temperature;BME280_humidity;BME280_pressure;Samples;Min_cycle;Max_cycle;Signal;HPM_P1;HPM_P2
2023/01/04 00:00:59;;;;;;;7.60;2.80;;;6.50;99.90;;;;;;5033685;28;20830;-62
2023/01/04 00:03:26;;;;;;;3.45;2.40;;;6.50;99.90;;;;;;5037245;28;20419;-64
2023/01/04 00:05:54;;;;;;;6.03;2.60;;;6.50;99.90;;;;;;5037502;28;20479;-64
2023/01/04 00:08:21;;;;;;;5.38;2.80;;;6.50;99.90;;;;;;5037595;28;20411;-63
2023/01/04 00:10:48;;;;;;;4.55;2.90;;;6.40;99.90;;;;;;5037045;28;20415;-63
2023/01/04 00:13:14;;;;;;;4.50;2.30;;;6.40;99.90;;;;;;5040089;28;20423;-63
2023/01/04 00:15:41;;;;;;;4.70;2.90;;;6.40;99.90;;;;;;5038985;28;20438;-63
2023/01/04 00:18:08;;;;;;;4.03;2.50;;;6.30;99.90;;;;;;5035743;28;20459;-63
2023/01/04 00:20:35;;;;;;;4.63;2.78;;;6.30;99.90;;;;;;5033883;28;20418;-62
2023/01/04 00:23:03;;;;;;;5.65;2.50;;;6.30;99.90;;;;;;5033696;28;20430;-64
2023/01/04 00:25:29;;;;;;;4.72;2.45;;;6.20;99.90;;;;;;5033493;28;20805;-63
2023/01/04 00:27:56;;;;;;;3.55;2.38;;;6.20;99.90;;;;;;5037131;28;20476;-64
2023/01/04 00:30:23;;;;;;;4.47;2.70;;;6.20;99.90;;;;;;5037229;28;20433;-63
2023/01/04 00:32:49;;;;;;;5.40;2.53;;;6.20;99.90;;;;;;5036957;28;20414;-64
2023/01/04 00:35:17;;;;;;;4.78;2.55;;;6.20;99.90;;;;;;5037447;28;20493;-63
2023/01/04 00:37:43;;;;;;;4.93;2.20;;;6.20;99.90;;;;;;5037198;28;20933;-63
2023/01/04 00:40:12;;;;;;;4.25;2.10;;;6.20;99.90;;;;;;5036781;28;20807;-63
2023/01/04 00:42:39;;;;;;;3.88;2.22;;;6.20;99.90;;;;;;5037421;28;20834;-63
2023/01/04 00:45:07;;;;;;;5.88;2.00;;;6.20;99.90;;;;;;5036779;28;20410;-63
2023/01/04 00:47:34;;;;;;;6.05;2.50;;;6.20;99.90;;;;;;5036720;28;20418;-63
2023/01/04 00:50:01;;;;;;;3.50;2.40;;;6.20;99.90;;;;;;5037088;28;20410;-63
2023/01/04 00:52:28;;;;;;;4.38;2.03;;;6.30;99.90;;;;;;5037500;28;20458;-62
2023/01/04 00:54:54;;;;;;;2.97;2.00;;;6.30;99.90;;;;;;5037154;28;20998;-64
2023/01/04 00:57:22;;;;;;;3.97;2.30;;;6.30;99.90;;;;;;5036898;28;20411;-63
2023/01/04 00:59:49;;;;;;;4.40;2.60;;;6.30;99.90;;;;;;5036578;28;20504;-63
2023/01/04 01:02:16;;;;;;;3.72;2.40;;;6.30;99.90;;;;;;5036526;28;20786;-63
2023/01/04 01:04:43;;;;;;;4.93;2.30;;;6.30;99.90;;;;;;5037967;28;20426;-63
2023/01/04 01:07:09;;;;;;;5.50;2.40;;;6.30;99.90;;;;;;5044913;28;20899;-63
2023/01/04 01:09:36;;;;;;;6.03;2.80;;;6.30;99.90;;;;;;5042394;28;20422;-63
2023/01/04 01:12:03;;;;;;;4.03;2.50;;;6.30;99.90;;;;;;5042002;28;20498;-63
2023/01/04 01:14:32;;;;;;;3.70;2.38;;;6.40;99.90;;;;;;5043866;28;20419;-63
2023/01/04 01:16:58;;;;;;;3.65;2.35;;;6.40;99.90;;;;;;5043419;28;20814;-63
2023/01/04 01:19:26;;;;;;;5.22;2.60;;;6.40;99.90;;;;;;5041514;28;20426;-63
2023/01/04 01:21:55;;;;;;;5.97;2.42;;;6.40;99.90;;;;;;5041412;28;20411;-63
2023/01/04 01:24:22;;;;;;;6.95;2.65;;;6.30;99.90;;;;;;5038463;28;20418;-63
2023/01/04 01:26:48;;;;;;;4.22;2.30;;;6.30;99.90;;;;;;5038282;28;20415;-63
2023/01/04 01:29:15;;;;;;;4.07;2.35;;;6.30;99.90;;;;;;5036116;28;20418;-63
2023/01/04 01:31:43;;;;;;;4.40;2.70;;;6.30;99.90;;;;;;5036093;28;20430;-62
2023/01/04 01:34:10;;;;;;;3.60;2.15;;;6.20;99.90;;;;;;5036194;28;20423;-63
2023/01/04 01:36:37;;;;;;;3.00;2.10;;;6.20;99.90;;;;;;5036230;28;20427;-63
2023/01/04 01:39:04;;;;;;;4.75;2.40;;;6.20;99.90;;;;;;5036228;28;20415;-62
2023/01/04 01:41:32;;;;;;;6.45;2.60;;;6.20;99.90;;;;;;5037263;28;20414;-63
2023/01/04 01:44:01;;;;;;;4.60;2.87;;;6.30;99.90;;;;;;5036619;28;20415;-63
2023/01/04 01:46:32;;;;;;;3.88;1.92;;;6.30;99.90;;;;;;5036138;28;20450;-62
2023/01/04 01:49:04;;;;;;;4.75;2.45;;;6.30;99.90;;;;;;5035289;28;20872;-61
2023/01/04 01:51:32;;;;;;;5.65;2.50;;;6.40;99.90;;;;;;5035248;28;20483;-62
2023/01/04 01:54:04;;;;;;;5.05;2.40;;;6.40;99.90;;;;;;5034794;28;20430;-62
2023/01/04 01:56:35;;;;;;;3.90;2.42;;;6.40;99.90;;;;;;5034775;28;20427;-62
2023/01/04 01:59:03;;;;;;;4.57;2.40;;;6.40;99.90;;;;;;5034748;28;20419;-62
2023/01/04 02:01:30;;;;;;;4.70;2.30;;;6.40;99.90;;;;;;5034603;28;20896;-63
2023/01/04 02:03:56;;;;;;;3.80;2.20;;;6.50;99.90;;;;;;5034947;28;20458;-62
2023/01/04 02:06:29;;;;;;;5.22;2.65;;;6.50;99.90;;;;;;5034567;28;20473;-63
2023/01/04 02:08:56;;;;;;;5.10;2.30;;;6.50;99.90;;;;;;5034734;28;20419;-63
2023/01/04 02:11:23;;;;;;;3.88;1.98;;;6.50;99.90;;;;;;5034995;28;20457;-62
2023/01/04 02:16:52;;;;;;;3.30;2.08;;;6.70;99.90;;;;;;5034536;28;20909;-63
2023/01/04 02:19:42;;;;;;;3.80;2.03;;;6.80;99.90;;;;;;5034764;28;20909;-63
2023/01/04 02:22:34;;;;;;;2.90;2.00;;;6.90;99.90;;;;;;5034375;28;20415;-63
2023/01/04 02:25:34;;;;;;;6.28;2.40;;;6.90;99.90;;;;;;5034287;28;20408;-62
2023/01/04 02:28:05;;;;;;;2.95;2.00;;;6.90;99.90;;;;;;5034083;28;20419;-63
2023/01/04 02:31:13;;;;;;;5.22;2.20;;;7.00;99.90;;;;;;5034183;28;20422;-63
2023/01/04 02:33:48;;;;;;;3.72;2.22;;;7.00;99.90;;;;;;5034420;28;20875;-63
2023/01/04 02:36:23;;;;;;;3.90;1.80;;;7.00;99.90;;;;;;5034135;28;20430;-63
2023/01/04 02:39:05;;;;;;;3.75;2.00;;;7.10;99.90;;;;;;5033804;28;20415;-63
2023/01/04 02:41:37;;;;;;;5.32;1.85;;;7.10;99.90;;;;;;5034310;28;20411;-63
2023/01/04 02:47:01;;;;;;;4.30;1.98;;;7.20;99.90;;;;;;5033855;28;20398;-62
2023/01/04 02:52:12;;;;;;;4.30;2.10;;;7.30;99.90;;;;;;5034249;28;20886;-63
2023/01/04 02:54:39;;;;;;;4.93;1.80;;;7.30;99.90;;;;;;5033742;28;20426;-64
2023/01/04 02:57:29;;;;;;;4.70;1.70;;;7.30;99.90;;;;;;5033508;28;20423;-63
2023/01/04 03:00:20;;;;;;;5.47;2.20;;;7.40;99.90;;;;;;5034220;28;20418;-63
2023/01/04 03:06:17;;;;;;;4.05;1.90;;;7.40;99.90;;;;;;5047575;28;20473;-63
2023/01/04 03:08:54;;;;;;;3.65;1.90;;;7.40;99.90;;;;;;5050347;28;20411;-63
2023/01/04 03:14:11;;;;;;;3.60;2.17;;;7.40;99.90;;;;;;5052483;28;20397;-63
2023/01/04 03:16:42;;;;;;;5.50;2.45;;;7.40;99.90;;;;;;5039786;28;20545;-63
2023/01/04 03:19:12;;;;;;;2.63;2.07;;;7.40;99.90;;;;;;5035175;28;20871;-62
2023/01/04 03:21:43;;;;;;;4.07;2.13;;;7.40;99.90;;;;;;5034502;28;20418;-62
2023/01/04 03:35:41;;;;;;;5.43;2.40;;;7.50;99.90;;;;;;5032544;28;20430;-63
2023/01/04 03:49:39;;;;;;;3.40;2.03;;;7.80;99.90;;;;;;5033061;28;20437;-63
2023/01/04 03:52:10;;;;;;;4.82;2.28;;;7.90;99.90;;;;;;5036661;28;20438;-62
2023/01/04 03:54:39;;;;;;;4.45;2.35;;;7.90;99.90;;;;;;5045493;28;20423;-63
2023/01/04 03:57:08;;;;;;;3.67;1.92;;;7.80;99.90;;;;;;5036906;28;20434;-62
2023/01/04 03:59:40;;;;;;;4.75;2.20;;;7.90;99.90;;;;;;5032575;28;20415;-61
2023/01/04 04:02:12;;;;;;;4.30;2.40;;;7.90;99.90;;;;;;5032652;28;20437;-62
2023/01/04 04:11:29;;;;;;;3.45;2.10;;;7.80;99.90;;;;;;5090330;28;20353;-62
2023/01/04 04:13:46;;;;;;;3.90;2.20;;;7.80;99.90;;;;;;5090982;28;20438;-62
2023/01/04 04:16:13;;;;;;;4.45;2.50;;;7.80;99.90;;;;;;5092248;28;20787;-62
2023/01/04 04:18:40;;;;;;;3.45;2.20;;;7.80;99.90;;;;;;5092489;28;20422;-63
2023/01/04 04:21:06;;;;;;;3.17;2.00;;;7.80;99.90;;;;;;5092500;28;20421;-63
2023/01/04 04:23:33;;;;;;;3.40;2.30;;;7.80;99.90;;;;;;5055726;22;20509;-70
2023/01/04 04:26:01;;;;;;;4.38;2.28;;;7.80;99.90;;;;;;4967578;28;20417;-71
2023/01/04 04:28:28;;;;;;;2.72;2.30;;;7.80;99.90;;;;;;4967545;28;20440;-70
2023/01/04 04:30:54;;;;;;;3.97;2.55;;;7.80;99.90;;;;;;4966888;28;20446;-70
2023/01/04 04:33:21;;;;;;;3.87;2.20;;;7.80;99.90;;;;;;4967253;28;20420;-70
2023/01/04 04:35:50;;;;;;;4.57;2.50;;;7.70;99.90;;;;;;4967053;28;20417;-69
2023/01/04 04:38:17;;;;;;;4.75;2.80;;;7.70;99.90;;;;;;4966952;28;20464;-71
2023/01/04 04:43:30;;;;;;;5.27;2.37;;;7.70;99.90;;;;;;4967768;28;20785;-72
2023/01/04 04:45:56;;;;;;;3.97;2.40;;;7.70;99.90;;;;;;4967028;28;20432;-70
2023/01/04 04:48:23;;;;;;;5.05;2.45;;;7.70;99.90;;;;;;4966976;28;20432;-68
2023/01/04 04:50:50;;;;;;;4.50;2.63;;;7.70;99.90;;;;;;4966366;28;20983;-70
2023/01/04 04:53:17;;;;;;;4.53;2.70;;;7.70;99.90;;;;;;4967071;28;20431;-69
2023/01/04 04:55:44;;;;;;;5.25;2.60;;;7.70;99.90;;;;;;4966700;28;20429;-69
2023/01/04 04:58:10;;;;;;;5.85;2.25;;;7.70;99.90;;;;;;4967747;28;20425;-69
2023/01/04 05:00:40;;;;;;;3.97;2.58;;;7.70;99.90;;;;;;4968286;28;20444;-70
2023/01/04 05:03:07;;;;;;;5.10;2.87;;;7.80;99.90;;;;;;4967717;28;20785;-70
2023/01/04 05:05:34;;;;;;;5.20;2.60;;;7.80;99.90;;;;;;4967515;28;20956;-70
2023/01/04 05:08:00;;;;;;;4.20;2.25;;;7.80;99.90;;;;;;4966603;28;20886;-70
2023/01/04 05:10:27;;;;;;;5.13;2.97;;;7.90;99.90;;;;;;4967035;28;20444;-69
2023/01/04 05:12:59;;;;;;;4.00;2.30;;;7.90;99.90;;;;;;4966752;28;20425;-71
2023/01/04 05:15:27;;;;;;;2.80;2.30;;;7.90;99.90;;;;;;4967121;28;20425;-69
2023/01/04 05:17:55;;;;;;;3.88;2.22;;;7.90;99.90;;;;;;4967018;28;20527;-70
2023/01/04 05:20:22;;;;;;;3.60;2.40;;;7.90;99.90;;;;;;4964158;28;20982;-68
2023/01/04 05:22:48;;;;;;;3.90;2.10;;;7.90;99.90;;;;;;4954590;28;20426;-69
2023/01/04 05:25:15;;;;;;;5.03;2.50;;;7.90;99.90;;;;;;4954934;29;20426;-69
2023/01/04 05:27:42;;;;;;;4.55;2.70;;;7.90;99.90;;;;;;4955278;29;20434;-68
2023/01/04 05:32:57;;;;;;;3.83;2.20;;;8.00;99.90;;;;;;4955482;29;20413;-69
2023/01/04 05:35:24;;;;;;;3.70;2.50;;;8.00;99.90;;;;;;4956093;29;20521;-68
2023/01/04 05:37:51;;;;;;;5.22;2.40;;;8.00;99.90;;;;;;4955350;29;20424;-68
2023/01/04 05:40:18;;;;;;;3.90;2.33;;;8.00;99.90;;;;;;4954888;29;20420;-69
2023/01/04 05:42:45;;;;;;;4.88;2.50;;;8.00;99.90;;;;;;4954009;29;20422;-67
2023/01/04 05:45:11;;;;;;;4.13;2.50;;;8.00;99.90;;;;;;4953739;29;20524;-67
2023/01/04 05:47:38;;;;;;;4.03;2.25;;;8.00;99.90;;;;;;4953482;29;20433;-66
2023/01/04 05:50:07;;;;;;;4.40;2.50;;;7.90;99.90;;;;;;4953312;29;20437;-67
2023/01/04 05:52:34;;;;;;;4.40;2.63;;;7.90;99.90;;;;;;4953757;29;20441;-68
2023/01/04 05:55:01;;;;;;;3.80;2.07;;;7.90;99.90;;;;;;4953529;28;20880;-67
2023/01/04 05:57:28;;;;;;;3.30;2.20;;;7.90;99.90;;;;;;4956450;28;20440;-68
2023/01/04 05:59:55;;;;;;;3.60;2.30;;;7.90;99.90;;;;;;4952686;28;20425;-70
2023/01/04 06:02:24;;;;;;;3.60;2.40;;;7.90;99.90;;;;;;4954965;28;20917;-68
2023/01/04 06:04:51;;;;;;;3.08;2.40;;;7.80;99.90;;;;;;4953351;28;20468;-68
2023/01/04 06:07:19;;;;;;;4.50;2.30;;;7.80;99.90;;;;;;4952880;28;20429;-68
2023/01/04 06:09:46;;;;;;;3.70;1.98;;;7.80;99.90;;;;;;4952413;28;20445;-69
2023/01/04 06:12:13;;;;;;;3.40;2.20;;;7.90;99.90;;;;;;4953032;28;20508;-68
2023/01/04 06:14:41;;;;;;;3.72;2.50;;;7.80;99.90;;;;;;4952549;28;20441;-69
2023/01/04 06:17:08;;;;;;;4.30;2.30;;;7.90;99.90;;;;;;4954445;29;20426;-69
2023/01/04 06:19:35;;;;;;;4.55;2.20;;;7.90;99.90;;;;;;4960135;28;20436;-70
2023/01/04 06:22:02;;;;;;;6.10;2.45;;;7.90;99.90;;;;;;4963434;28;20938;-69
2023/01/04 06:24:30;;;;;;;3.42;2.00;;;7.90;99.90;;;;;;5002403;28;20427;-71
2023/01/04 06:26:57;;;;;;;2.78;2.10;;;8.00;99.90;;;;;;4995332;28;20422;-70
2023/01/04 06:29:23;;;;;;;2.85;1.85;;;8.10;99.90;;;;;;4980712;28;20447;-69
2023/01/04 06:31:50;;;;;;;2.15;1.70;;;8.10;99.90;;;;;;4961292;28;20446;-70
2023/01/04 06:34:17;;;;;;;3.53;1.70;;;8.20;99.90;;;;;;4962815;28;20438;-69
2023/01/04 06:36:44;;;;;;;2.90;2.00;;;8.20;99.90;;;;;;4956343;28;20444;-71
2023/01/04 06:39:10;;;;;;;2.72;2.10;;;8.20;99.90;;;;;;4968377;28;20438;-69
2023/01/04 06:41:39;;;;;;;2.60;2.08;;;8.20;99.90;;;;;;4934814;29;20428;-70
2023/01/04 06:44:06;;;;;;;2.53;2.08;;;8.20;99.90;;;;;;4935687;29;20435;-70
2023/01/04 06:46:33;;;;;;;2.83;2.05;;;8.30;99.90;;;;;;4934068;29;20430;-68
2023/01/04 06:48:59;;;;;;;3.00;1.90;;;8.30;99.90;;;;;;4937962;28;20450;-66
2023/01/04 06:51:26;;;;;;;2.60;2.00;;;8.20;99.90;;;;;;4951765;28;20446;-68
2023/01/04 06:53:53;;;;;;;2.75;1.90;;;8.30;99.90;;;;;;4960182;28;20441;-71
2023/01/04 06:56:20;;;;;;;2.42;1.90;;;8.30;99.90;;;;;;4970311;28;20445;-73
2023/01/04 06:58:48;;;;;;;2.50;1.70;;;8.30;99.90;;;;;;4969545;29;20418;-72
2023/01/04 07:01:15;;;;;;;3.08;2.13;;;8.20;99.90;;;;;;4972722;28;20440;-71
2023/01/04 07:03:42;;;;;;;4.00;1.90;;;8.30;99.90;;;;;;4963009;28;20474;-71
2023/01/04 07:06:09;;;;;;;3.05;1.80;;;8.30;99.90;;;;;;4971583;29;20476;-71
2023/01/04 07:08:36;;;;;;;2.40;1.60;;;8.30;99.90;;;;;;4969603;28;20421;-72
2023/01/04 07:11:03;;;;;;;2.03;1.80;;;8.30;99.90;;;;;;4972106;29;20497;-72
2023/01/04 07:13:30;;;;;;;2.75;1.60;;;8.30;99.90;;;;;;4971682;29;20480;-71
2023/01/04 07:15:58;;;;;;;3.63;1.77;;;8.30;99.90;;;;;;4971286;28;20454;-72
2023/01/04 07:18:25;;;;;;;3.28;1.80;;;8.40;99.90;;;;;;4970204;28;20430;-71
2023/01/04 07:20:52;;;;;;;3.17;2.00;;;8.40;99.90;;;;;;4957535;29;20418;-69
2023/01/04 07:23:19;;;;;;;2.85;1.65;;;8.30;99.90;;;;;;4953034;28;20438;-69
2023/01/04 07:25:45;;;;;;;2.83;1.98;;;8.40;99.90;;;;;;4953294;29;20433;-67
2023/01/04 07:29:13;;;;;;;3.50;2.20;;;8.40;99.90;;;;;;4954638;29;20422;-68
2023/01/04 07:31:04;;;;;;;3.30;2.10;;;8.40;99.90;;;;;;4957822;29;20436;-69
2023/01/04 07:33:31;;;;;;;2.80;1.90;;;8.40;99.90;;;;;;4955646;29;20525;-68
2023/01/04 07:36:02;;;;;;;4.10;1.90;;;8.50;99.90;;;;;;4953014;29;20433;-68
2023/01/04 07:38:30;;;;;;;2.50;2.15;;;8.50;99.90;;;;;;4956644;29;20434;-67
2023/01/04 07:40:56;;;;;;;3.55;2.45;;;8.50;99.90;;;;;;4960940;28;20422;-68
2023/01/04 07:43:23;;;;;;;4.00;2.58;;;8.60;99.90;;;;;;4952033;28;20434;-68
2023/01/04 07:45:50;;;;;;;4.47;3.30;;;8.60;99.90;;;;;;4952615;29;20422;-67
2023/01/04 07:48:18;;;;;;;4.82;3.20;;;8.60;99.90;;;;;;4951996;28;20449;-68
2023/01/04 07:50:45;;;;;;;4.30;2.78;;;8.70;99.90;;;;;;4952777;28;20442;-68
2023/01/04 07:53:12;;;;;;;3.17;2.20;;;8.70;99.90;;;;;;4952991;28;20453;-68
2023/01/04 07:55:39;;;;;;;2.72;2.40;;;8.70;99.90;;;;;;4954044;28;20960;-69
2023/01/04 07:58:06;;;;;;;2.53;1.63;;;8.70;99.90;;;;;;4954012;28;20470;-68
2023/01/04 08:00:32;;;;;;;3.00;1.90;;;8.80;99.90;;;;;;4952111;29;20433;-68
2023/01/04 08:02:59;;;;;;;1.80;1.60;;;8.80;99.90;;;;;;4954250;29;20426;-68
2023/01/04 08:05:28;;;;;;;2.10;1.70;;;8.80;99.90;;;;;;4955441;28;20771;-70
2023/01/04 08:07:54;;;;;;;2.63;2.05;;;8.90;99.90;;;;;;4953463;28;20433;-70
2023/01/04 08:10:21;;;;;;;3.65;1.90;;;8.80;99.90;;;;;;4957734;28;20441;-69
2023/01/04 08:12:48;;;;;;;2.70;1.70;;;8.90;99.90;;;;;;4956241;28;20425;-69
2023/01/04 08:15:15;;;;;;;2.70;1.80;;;8.90;99.90;;;;;;4956100;29;20485;-69
2023/01/04 08:17:42;;;;;;;1.90;1.70;;;8.90;99.90;;;;;;4982413;28;20468;-70
2023/01/04 08:20:09;;;;;;;2.58;2.10;;;8.90;99.90;;;;;;5053856;28;20424;-70
2023/01/04 08:22:37;;;;;;;2.33;1.80;;;8.90;99.90;;;;;;5052234;28;20409;-68
2023/01/04 08:25:05;;;;;;;1.90;1.70;;;9.00;99.90;;;;;;5052184;28;20413;-69
2023/01/04 08:27:33;;;;;;;2.10;1.60;;;9.00;99.90;;;;;;5051923;28;20882;-69
2023/01/04 08:30:00;;;;;;;2.15;1.63;;;9.00;99.90;;;;;;5051784;28;20417;-70
2023/01/04 08:32:27;;;;;;;2.50;1.70;;;9.00;99.90;;;;;;5052545;28;20425;-68
2023/01/04 08:34:54;;;;;;;2.10;1.60;;;9.00;99.90;;;;;;4976168;28;20438;-69
2023/01/04 08:37:21;;;;;;;3.28;2.00;;;9.10;99.90;;;;;;4951388;29;20433;-66
2023/01/04 08:39:49;;;;;;;2.88;1.67;;;9.00;99.90;;;;;;4951547;29;20437;-68
2023/01/04 08:42:16;;;;;;;2.00;1.70;;;9.00;99.90;;;;;;4950399;28;20461;-67
2023/01/04 08:44:42;;;;;;;2.20;1.70;;;9.00;99.90;;;;;;4950946;28;20430;-66
2023/01/04 08:47:09;;;;;;;1.92;1.73;;;9.00;99.90;;;;;;4950997;28;20418;-67
2023/01/04 08:49:36;;;;;;;2.10;1.70;;;9.10;99.90;;;;;;4951974;29;20418;-69
2023/01/04 08:52:03;;;;;;;2.40;1.60;;;9.10;99.90;;;;;;4951799;29;20430;-68
2023/01/04 08:54:30;;;;;;;2.10;1.85;;;9.10;99.90;;;;;;4951446;29;20433;-67
2023/01/04 08:56:58;;;;;;;2.10;1.63;;;9.10;99.90;;;;;;4954795;28;20902;-68
2023/01/04 08:59:25;;;;;;;3.83;2.17;;;9.10;99.90;;;;;;4956699;29;21137;-68
2023/01/04 09:01:52;;;;;;;2.60;1.63;;;9.00;99.90;;;;;;4959318;29;20426;-68
2023/01/04 09:04:19;;;;;;;3.65;2.20;;;8.90;99.90;;;;;;4962750;29;20460;-67
2023/01/04 09:06:46;;;;;;;2.80;2.10;;;8.90;99.90;;;;;;4964509;28;20441;-68
2023/01/04 09:09:13;;;;;;;4.20;2.00;;;8.80;99.90;;;;;;4962321;29;20442;-66
2023/01/04 09:11:39;;;;;;;2.50;1.63;;;8.80;99.90;;;;;;4958660;28;20438;-66
2023/01/04 09:14:09;;;;;;;2.97;1.80;;;8.80;99.90;;;;;;4958277;28;20418;-68
2023/01/04 09:16:36;;;;;;;4.10;1.70;;;8.80;99.90;;;;;;4959196;29;20430;-67
2023/01/04 09:19:04;;;;;;;3.03;1.70;;;8.80;99.90;;;;;;4957487;29;20426;-67
2023/01/04 09:21:31;;;;;;;1.60;1.40;;;8.80;99.90;;;;;;4954992;29;20479;-67
2023/01/04 09:23:58;;;;;;;3.40;1.50;;;8.80;99.90;;;;;;4954678;28;20444;-68
2023/01/04 09:26:24;;;;;;;2.70;1.47;;;8.80;99.90;;;;;;4954720;29;20433;-67
2023/01/04 09:28:53;;;;;;;1.60;1.30;;;8.80;99.90;;;;;;4954346;29;20429;-67
2023/01/04 09:31:23;;;;;;;2.75;1.73;;;8.90;99.90;;;;;;4955760;29;20801;-68
2023/01/04 09:33:50;;;;;;;2.25;1.35;;;8.90;99.90;;;;;;4955123;29;20426;-67
2023/01/04 09:36:18;;;;;;;1.60;1.27;;;9.00;99.90;;;;;;4954108;29;20870;-66
2023/01/04 09:38:45;;;;;;;2.20;1.30;;;9.00;99.90;;;;;;4954733;29;20425;-67
2023/01/04 09:41:22;;;;;;;2.70;1.70;;;9.00;99.90;;;;;;4955587;29;20514;-69
2023/01/04 09:43:50;;;;;;;1.80;1.38;;;9.00;99.90;;;;;;4954986;29;20485;-67
2023/01/04 09:46:34;;;;;;;3.40;1.80;;;9.10;99.90;;;;;;4954694;29;20429;-67
2023/01/04 09:49:15;;;;;;;3.03;2.00;;;9.20;99.90;;;;;;4953989;29;20425;-67
2023/01/04 09:51:48;;;;;;;3.08;1.80;;;9.20;99.90;;;;;;4954432;29;20442;-67
2023/01/04 09:54:19;;;;;;;1.52;1.30;;;9.30;99.90;;;;;;4954413;29;20789;-68
2023/01/04 09:56:50;;;;;;;2.65;1.30;;;9.30;99.90;;;;;;4955120;29;20921;-68
2023/01/04 09:59:20;;;;;;;2.28;1.42;;;9.30;99.90;;;;;;4955090;29;20751;-68
2023/01/04 10:01:53;;;;;;;1.88;1.30;;;9.30;99.90;;;;;;4955562;29;20422;-68
2023/01/04 10:04:25;;;;;;;2.08;1.20;;;9.40;99.90;;;;;;4959126;29;20428;-69
2023/01/04 10:06:53;;;;;;;1.92;1.25;;;9.40;99.90;;;;;;4955263;28;20430;-69
2023/01/04 10:09:21;;;;;;;3.63;2.00;;;9.40;99.90;;;;;;4955935;28;20437;-68
2023/01/04 10:12:05;;;;;;;1.95;1.30;;;9.50;99.90;;;;;;4955662;29;20434;-68
2023/01/04 10:14:47;;;;;;;1.70;1.10;;;9.50;99.90;;;;;;4957208;29;20533;-68
2023/01/04 10:17:30;;;;;;;1.60;1.00;;;9.60;99.90;;;;;;4956747;29;20420;-68
2023/01/04 10:20:15;;;;;;;2.30;1.50;;;9.60;99.90;;;;;;4954035;29;20430;-69
2023/01/04 10:22:49;;;;;;;1.27;1.10;;;9.70;99.90;;;;;;4954070;28;20430;-69
2023/01/04 10:25:23;;;;;;;1.50;1.00;;;9.80;99.90;;;;;;4976441;22;20437;-64
2023/01/04 10:28:03;;;;;;;1.60;1.00;;;9.90;99.90;;;;;;4953092;29;20428;-65
2023/01/04 10:30:39;;;;;;;1.55;0.90;;;10.00;99.90;;;;;;4955053;28;20422;-65
2023/01/04 10:33:12;;;;;;;2.65;0.90;;;10.10;99.90;;;;;;4953209;28;20433;-64
2023/01/04 10:35:42;;;;;;;0.80;0.60;;;10.20;99.90;;;;;;4937790;29;20435;-63
2023/01/04 10:38:16;;;;;;;1.50;0.83;;;10.20;99.90;;;;;;4939481;29;20431;-65
2023/01/04 10:40:45;;;;;;;1.17;0.60;;;10.20;99.90;;;;;;4938668;28;20423;-64
2023/01/04 10:43:21;;;;;;;1.08;0.70;;;10.20;99.90;;;;;;4939111;28;20423;-64
2023/01/04 10:45:53;;;;;;;1.73;1.00;;;10.30;99.90;;;;;;4938252;28;20495;-65
2023/01/04 10:48:29;;;;;;;2.28;1.00;;;10.20;99.90;;;;;;4938322;28;20424;-66
2023/01/04 10:50:57;;;;;;;1.40;0.70;;;10.20;99.90;;;;;;4937026;29;20444;-65
2023/01/04 10:53:30;;;;;;;1.80;1.10;;;10.20;99.90;;;;;;4934787;28;20455;-64
2023/01/04 10:56:03;;;;;;;1.00;0.80;;;10.10;99.90;;;;;;4934644;28;20427;-65
2023/01/04 10:58:36;;;;;;;1.02;0.80;;;10.10;99.90;;;;;;4935111;29;20460;-64
2023/01/04 11:01:08;;;;;;;0.90;0.70;;;10.10;99.90;;;;;;4934162;29;20427;-63
2023/01/04 11:03:41;;;;;;;1.33;0.60;;;10.10;99.90;;;;;;4934405;28;20432;-65
2023/01/04 11:06:14;;;;;;;2.30;0.80;;;10.00;99.90;;;;;;4934303;29;20424;-65
2023/01/04 11:08:47;;;;;;;2.00;0.80;;;10.00;99.90;;;;;;4933863;28;20428;-64
2023/01/04 11:11:20;;;;;;;2.43;0.77;;;10.00;99.90;;;;;;4933223;28;21000;-63
2023/01/04 11:13:48;;;;;;;0.90;0.70;;;10.00;99.90;;;;;;4936321;28;20935;-65
2023/01/04 11:16:15;;;;;;;1.00;0.77;;;10.00;99.90;;;;;;4939754;28;20427;-66
2023/01/04 11:18:45;;;;;;;0.70;0.60;;;10.00;99.90;;;;;;4938149;28;20436;-65
2023/01/04 11:21:14;;;;;;;1.50;0.70;;;10.10;99.90;;;;;;4939653;28;20419;-65
2023/01/04 11:23:41;;;;;;;1.20;0.80;;;10.10;99.90;;;;;;4940479;29;20430;-65
2023/01/04 11:26:13;;;;;;;1.30;1.00;;;10.10;99.90;;;;;;4941302;28;20427;-66
2023/01/04 11:28:45;;;;;;;1.52;0.63;;;10.10;99.90;;;;;;4941899;28;20420;-64
2023/01/04 11:31:21;;;;;;;1.35;0.60;;;10.10;99.90;;;;;;4937914;28;20446;-65
2023/01/04 11:33:55;;;;;;;1.90;0.70;;;10.10;99.90;;;;;;4935030;28;20569;-65
2023/01/04 11:36:34;;;;;;;0.90;0.60;;;10.10;99.90;;;;;;4934892;29;20796;-65
2023/01/04 11:39:01;;;;;;;0.90;0.50;;;10.20;99.90;;;;;;4934475;29;20432;-65
2023/01/04 11:41:28;;;;;;;0.90;0.50;;;10.20;99.90;;;;;;4934148;28;20444;-65
2023/01/04 11:43:59;;;;;;;1.80;1.20;;;10.20;99.90;;;;;;4934394;28;20765;-65
2023/01/04 11:46:28;;;;;;;5.37;2.60;;;10.20;99.90;;;;;;4933824;29;20439;-65
2023/01/04 11:48:56;;;;;;;3.35;2.03;;;10.20;99.90;;;;;;4934415;29;20884;-66
2023/01/04 11:51:39;;;;;;;0.90;0.60;;;10.20;99.90;;;;;;4936862;28;20443;-66
2023/01/04 11:54:17;;;;;;;2.00;1.20;;;10.20;99.90;;;;;;4936966;29;20427;-65
2023/01/04 11:56:59;;;;;;;1.30;0.70;;;10.20;99.90;;;;;;4936894;29;20424;-66
2023/01/04 11:59:26;;;;;;;1.52;0.82;;;10.30;99.90;;;;;;4936959;29;20914;-65
2023/01/04 12:02:16;;;;;;;0.70;0.60;;;10.30;99.90;;;;;;4937414;28;20431;-65
2023/01/04 12:04:44;;;;;;;1.10;0.60;;;10.30;99.90;;;;;;4934320;28;20432;-66
2023/01/04 12:07:25;;;;;;;0.90;0.60;;;10.30;99.90;;;;;;4934134;28;20419;-65
2023/01/04 12:09:52;;;;;;;1.10;0.70;;;10.40;99.90;;;;;;4933199;28;20435;-66
2023/01/04 12:12:19;;;;;;;1.58;0.57;;;10.40;99.90;;;;;;4933302;28;20445;-64
2023/01/04 12:14:48;;;;;;;3.08;0.80;;;10.40;99.90;;;;;;4933522;28;20428;-66
2023/01/04 12:17:22;;;;;;;1.60;0.80;;;10.40;99.90;;;;;;4932711;28;20427;-65
2023/01/04 12:19:53;;;;;;;0.80;0.50;;;10.50;99.90;;;;;;4932952;29;20769;-66
2023/01/04 12:22:24;;;;;;;1.02;0.70;;;10.50;99.90;;;;;;4933017;29;20447;-65
2023/01/04 12:24:53;;;;;;;1.52;0.70;;;10.50;99.90;;;;;;4934156;29;20533;-65
2023/01/04 12:27:20;;;;;;;2.50;0.70;;;10.60;99.90;;;;;;4933696;29;20424;-66
2023/01/04 12:29:56;;;;;;;1.00;0.70;;;10.60;99.90;;;;;;4932889;29;20428;-64
2023/01/04 12:32:44;;;;;;;1.15;0.60;;;10.60;99.90;;;;;;4935300;28;20442;-64
2023/01/04 12:36:01;;;;;;;1.10;0.70;;;10.60;99.90;;;;;;4936640;29;20420;-66
2023/01/04 12:39:01;;;;;;;1.00;0.60;;;10.60;99.90;;;;;;4936392;29;20473;-65
2023/01/04 12:42:14;;;;;;;1.33;0.50;;;10.60;99.90;;;;;;4937071;28;20420;-66
2023/01/04 12:45:14;;;;;;;1.00;0.70;;;10.60;99.90;;;;;;4937161;29;20915;-66
2023/01/04 12:50:29;;;;;;;1.20;0.65;;;10.70;99.90;;;;;;4936389;29;20414;-65
2023/01/04 12:53:02;;;;;;;0.80;0.52;;;10.70;99.90;;;;;;4935876;28;20927;-65
2023/01/04 12:56:00;;;;;;;0.63;0.45;;;10.70;99.90;;;;;;4936600;29;20485;-64
2023/01/04 12:58:41;;;;;;;1.20;0.50;;;10.80;99.90;;;;;;4936965;29;20427;-65
2023/01/04 13:01:20;;;;;;;1.20;0.70;;;10.80;99.90;;;;;;4937748;28;20446;-66
2023/01/04 13:03:47;;;;;;;0.82;0.65;;;10.80;99.90;;;;;;4936668;29;20427;-66
2023/01/04 13:06:19;;;;;;;1.30;0.50;;;10.80;99.90;;;;;;4936425;29;20572;-66
2023/01/04 13:08:47;;;;;;;0.80;0.55;;;10.80;99.90;;;;;;4936842;28;20442;-65
2023/01/04 13:11:36;;;;;;;1.48;0.65;;;10.80;99.90;;;;;;4936262;28;20864;-64
2023/01/04 13:14:07;;;;;;;1.60;0.90;;;10.90;99.90;;;;;;4935923;29;20426;-66
2023/01/04 13:16:43;;;;;;;0.70;0.60;;;10.90;99.90;;;;;;4937130;28;20423;-65
2023/01/04 13:19:15;;;;;;;0.80;0.57;;;10.90;99.90;;;;;;4937498;28;20788;-65
2023/01/04 13:21:43;;;;;;;1.90;0.80;;;10.90;99.90;;;;;;4936299;29;20907;-65
2023/01/04 13:24:20;;;;;;;0.80;0.60;;;10.90;99.90;;;;;;4936111;29;20515;-66
2023/01/04 13:26:49;;;;;;;0.90;0.60;;;10.90;99.90;;;;;;4935944;29;20415;-66
2023/01/04 13:29:19;;;;;;;0.80;0.60;;;10.90;99.90;;;;;;4936117;29;20435;-65
2023/01/04 13:31:55;;;;;;;1.20;0.70;;;11.00;99.90;;;;;;4935744;28;20455;-66
2023/01/04 13:34:25;;;;;;;1.10;0.80;;;11.00;99.90;;;;;;4935078;28;20434;-64
2023/01/04 13:37:02;;;;;;;0.77;0.70;;;11.00;99.90;;;;;;4936390;28;20439;-65
2023/01/04 13:39:29;;;;;;;1.15;0.80;;;11.00;99.90;;;;;;4936331;28;20771;-65
2023/01/04 13:41:58;;;;;;;1.42;0.70;;;11.10;99.90;;;;;;4936396;28;20435;-67
2023/01/04 13:44:47;;;;;;;1.00;0.70;;;11.10;99.90;;;;;;4935515;28;20424;-64
2023/01/04 13:47:14;;;;;;;1.70;0.80;;;11.10;99.90;;;;;;4934907;29;20442;-65
2023/01/04 13:49:41;;;;;;;1.00;0.75;;;11.20;99.90;;;;;;4935309;28;20434;-66
2023/01/04 13:52:19;;;;;;;1.30;0.80;;;11.20;99.90;;;;;;4934676;29;20450;-65
2023/01/04 13:54:46;;;;;;;1.20;1.00;;;11.20;99.90;;;;;;4934484;28;20535;-65
2023/01/04 13:57:19;;;;;;;1.10;0.90;;;11.20;99.90;;;;;;4934563;28;20919;-65
2023/01/04 13:59:47;;;;;;;1.30;0.80;;;11.20;99.90;;;;;;4935369;29;20499;-66
2023/01/04 14:02:17;;;;;;;1.80;0.85;;;11.20;99.90;;;;;;4934797;28;20424;-65
2023/01/04 14:04:45;;;;;;;0.90;0.75;;;11.20;99.90;;;;;;4934906;29;20490;-65